Flight Track Log - Related Links

Times and Time Zones

All times are in EDT time to prevent confusion due to time zone crossing. See the ASH20 flight status page for this flight to view local times or setup timezone preferences in your user account.

Time Position Orientation Groundspeed Altitude Reporting Facility
EDT Latitude Longitude Course Direction KTS MPH feet Rate Location/Type
Fri 12:14:45 PM 20.9167 -156.4167 255° West 170 196 1,300  Level Honolulu Center
Fri 12:15:45 PM 20.9667 -156.4333 343° North 230 265 3,700 2,650 Climbing Honolulu Center
Fri 12:16:45 PM 21.0167 -156.4833 317° Northwest 260 299 6,600 2,850 Climbing Honolulu Center
Fri 12:17:45 PM 21.0500 -156.5667 293° West 290 334 9,400 2,200 Climbing Honolulu Center
Fri 12:18:45 PM 21.0333 -156.6500 258° West 310 357 11,000 1,488 Climbing Honolulu Center
Fri 12:19:46 PM 21.0167 -156.7500 260° West 360 414 12,400 1,488 Climbing Honolulu Center
Fri 12:20:00 PM 20.7693 -156.8896 255° West  Level FlightAware Approximate
Fri 12:20:46 PM 21.0000 -156.8500 260° West 360 414 14,000  Level Honolulu Center
Fri 12:21:46 PM 20.9833 -156.9667 261° West 360 414 15,400 1,000 Climbing Honolulu Center
Fri 12:22:46 PM 20.9833 -157.0500 270° West 370 426 16,000 300 Climbing Honolulu Center
Fri 12:23:46 PM 20.9667 -157.1667 261° West 350 403 16,000 -350 Level Honolulu Center
Fri 12:24:46 PM 20.9500 -157.2833 261° West 360 414 15,300 -1,400 Descending Honolulu Center
Fri 12:25:46 PM 20.9500 -157.3833 270° West 350 403 13,200 -2,050 Descending Honolulu Center
Fri 12:26:46 PM 20.9667 -157.4833 280° West 320 368 11,200 -1,884 Descending Honolulu Center
Fri 12:27:47 PM 20.9833 -157.5667 282° West 290 334 9,400 -1,835 Descending Honolulu Center
Fri 12:28:47 PM 21.0333 -157.6500 303° West 280 322 7,500 -1,900 Descending Honolulu Center
Fri 12:29:47 PM 21.0500 -157.7167 285° West 270 311 5,600 -1,750 Descending Honolulu Center
Fri 12:30:47 PM 21.0833 -157.7833 298° West 270 311 4,000 -1,550 Descending Honolulu Center
Fri 12:31:47 PM 21.1167 -157.8667 293° West 280 322 2,500 -1,250 Descending Honolulu Center
Fri 12:32:47 PM 21.1500 -157.9333 298° West 240 276 1,500 -500 Descending Honolulu Center
Fri 12:33:47 PM 21.2000 -157.9500 343° North 210 242 1,500  Level Honolulu Center

Login

Don't have an account? Register now (free) for customized features, flight alerts, and more!